Home   Weather   Germany   Böblingen   Past weeks
Flag for Germany

Past Weather in Böblingen, Baden-Württemberg, Germany — Yesterday and Last 2 Weeks

Currently: 68 °F. Passing clouds. (Weather station: Stuttgart-Echterdingen, Germany). See more current weather

Past Weather in Böblingen — Graph

°F

Böblingen Temperature Yesterday

Maximum temperature yesterday: 68 °F (at 2:20 pm)
Minimum temperature yesterday: 37 °F (at 4:50 am)
Average temperature yesterday: 50 °F

High & Low Weather Summary for the Past Weeks

 TemperatureHumidityPressure
High68 °F (Feb 21, 3:50 pm)100% (Feb 11, 10:50 pm)30.63 "Hg (Feb 11, 10:50 pm)
Low7 °F (Feb 11, 3:50 am)32% (Feb 14, 2:50 pm)29.68 "Hg (Feb 10, 2:20 pm)
Average36 °F74%30.27 "Hg
* Reported Feb 10 2:20 pm — Feb 25 2:20 pm, Böblingen. Weather by CustomWeather, © 2021

Note: Actual official high and low records may vary slightly from our data, if they occured in-between our weather recording intervals... More about our weather records

Böblingen Weather History for the Previous 24 Hours

Scroll right to see more
 ConditionsComfort  
Time TempWeatherWind HumidityBarometerVisibility
2:20 pm
Thu, Feb 25
68 °FPassing clouds.7 mph40%30.36 "HgN/A
1:50 pm66 °FPassing clouds.6 mph43%30.36 "HgN/A
1:20 pm64 °FPassing clouds.3 mph49%30.39 "HgN/A
12:50 pm63 °FPassing clouds.3 mph52%30.39 "HgN/A
12:20 pm61 °FPassing clouds.3 mph55%30.42 "HgN/A
11:50 am59 °FSunny.2 mph59%30.42 "Hg10 mi
11:20 am57 °FSunny.2 mph59%30.42 "Hg10 mi
10:50 am54 °FSunny.2 mph67%30.42 "Hg10 mi
10:20 am50 °FSunny.1 mph71%30.42 "Hg10 mi
9:50 am48 °FSunny.1 mph71%30.42 "Hg10 mi
9:20 am45 °FSunny.1 mph76%30.42 "Hg10 mi
8:50 am43 °FSunny.2 mph81%30.42 "Hg10 mi
8:20 am39 °FSunny.1 mph87%30.42 "Hg10 mi
7:50 am37 °FSunny.1 mph93%30.42 "Hg10 mi
7:20 am36 °FSunny.2 mph93%30.42 "Hg10 mi
6:50 am36 °FClear.3 mph93%30.42 "Hg10 mi
6:20 am36 °FClear.2 mph100%30.42 "Hg10 mi
5:50 am36 °FClear.2 mph93%30.42 "Hg10 mi
4:50 am37 °FClear.3 mph93%30.42 "Hg10 mi
4:20 am39 °FClear.5 mph87%30.42 "Hg10 mi
3:50 am39 °FClear.2 mph87%30.42 "Hg10 mi
3:20 am41 °FClear.1 mph87%30.42 "Hg10 mi
2:50 am41 °FClear.1 mph87%30.42 "Hg10 mi
2:20 am43 °FClear.2 mph81%30.42 "Hg10 mi
1:50 am43 °FClear.2 mph76%30.42 "Hg10 mi
1:20 am43 °FClear.2 mph71%30.42 "Hg10 mi
12:50 am43 °FClear.1 mph81%30.42 "Hg10 mi
12:20 am43 °FClear.1 mph81%30.42 "Hg10 mi
11:50 pm
Wed, Feb 24
41 °FClear.3 mph81%30.42 "Hg10 mi
11:20 pm43 °FClear.5 mph76%30.42 "Hg10 mi
10:50 pm46 °FClear.3 mph71%30.42 "Hg10 mi
10:20 pm46 °FClear.3 mph76%30.45 "Hg10 mi
9:50 pm46 °FClear.3 mph76%30.45 "Hg10 mi
9:20 pm46 °FClear.1 mph76%30.45 "Hg10 mi
8:50 pm52 °FClear.2 mph67%30.45 "Hg10 mi
8:20 pm54 °FClear.3 mph58%30.45 "Hg10 mi
7:50 pm55 °FClear.3 mph59%30.45 "Hg10 mi
7:20 pm55 °FClear.2 mph59%30.45 "Hg10 mi
6:50 pm55 °FPassing clouds.5 mph59%30.45 "HgN/A
6:20 pm57 °FClear.3 mph63%30.45 "Hg10 mi
5:50 pm61 °FSunny.2 mph59%30.45 "Hg10 mi
5:20 pm64 °FSunny.2 mph52%30.45 "Hg10 mi
4:50 pm66 °FPassing clouds.3 mph52%30.45 "HgN/A
4:20 pm68 °FSunny.3 mph46%30.45 "Hg10 mi
3:50 pm68 °FPassing clouds.3 mph46%30.45 "HgN/A
3:20 pm68 °FPassing clouds.3 mph43%30.45 "HgN/A
Weather by CustomWeather, © 2021

See weather overview